Swift, Minnesota
Current Conditions -  °F | °C
As of 8:14 AM on Sunday 21 Dec 2014 (Local Time) from KRRT Reporting Station
Overcast Overcast  
Wind Chill: 24°   Ceiling: 1200
Heat Index: 30°   Visibility: 7mi
Dew Point: 27°   Wind: 6mph
Humidity: 86%   Direction: 150°SSE
Pressure: 29.73"   Gusts: NA
Location:  48.85°N, 95.22°W
Report Text: KRRT 211414Z AUTO 15005KT 7SM OVC012 M01/M03 A2973 RMK AO2
Loading
Personal Weather Stations






























Interactive Weather Map New forecast layout! Learn more

10-Day Weather Forecast

Advertisements
Track Severe Weather on mobile